Time;durP1;ratioP1;P1;durP2;ratioP2;P2;SDS_P1;SDS_P2;PMS_P1;PMS_P2;Temp;Humidity;BMP_temperature;BMP_pressure;BME280_temperature;BME280_humidity;BME280_pressure;Samples;Min_cycle;Max_cycle;Signal;HPM_P1;HPM_P2
2020/12/03 00:00:49;;;;;;;75.72;21.93;;;;;;;-1.47;91.17;102331.74;1662836;85;21242;-85
2020/12/03 00:03:45;;;;;;;73.65;21.93;;;;;;;-1.46;91.61;102332.95;1668206;85;21223;-86
2020/12/03 00:06:32;;;;;;;74.70;21.48;;;;;;;-1.35;90.84;102329.34;1674752;85;21227;-85
2020/12/03 00:09:03;;;;;;;77.10;20.85;;;;;;;-1.55;91.21;102328.98;1555034;92;21146;-86
2020/12/03 00:11:33;;;;;;;78.37;22.20;;;;;;;-1.75;92.35;102326.29;1518636;92;21391;-85
2020/12/03 00:14:00;;;;;;;72.20;19.60;;;;;;;-1.65;92.57;102328.48;1580363;89;21314;-85
2020/12/03 00:16:31;;;;;;;81.42;21.40;;;;;;;-1.50;91.67;102322.31;1585881;89;21714;-86
2020/12/03 00:18:58;;;;;;;93.82;21.30;;;;;;;-1.25;90.54;102328.84;1590382;90;21278;-86
2020/12/03 00:21:38;;;;;;;80.15;20.82;;;;;;;-1.42;90.94;102326.89;1584050;89;21204;-86
2020/12/03 00:24:07;;;;;;;85.97;20.75;;;;;;;-1.39;91.64;102326.12;1605921;86;21584;-86
2020/12/03 00:26:34;;;;;;;78.28;21.60;;;;;;;-1.34;91.01;102331.50;1629076;85;21176;-86
2020/12/03 00:29:00;;;;;;;71.40;20.10;;;;;;;-1.24;90.80;102328.35;1626617;85;21148;-85
2020/12/03 00:31:27;;;;;;;77.82;22.00;;;;;;;-1.34;91.34;102332.33;1625480;85;21251;-86
2020/12/03 00:37:34;;;;;;;87.00;21.87;;;;;;;-1.39;90.60;102323.48;1629739;86;21298;-85
2020/12/03 00:40:00;;;;;;;88.00;21.07;;;;;;;-1.39;91.10;102326.12;1627981;85;21018;-86
2020/12/03 00:42:26;;;;;;;83.03;21.90;;;;;;;-1.54;91.10;102319.57;1631398;86;21032;-85
2020/12/03 00:44:52;;;;;;;92.02;20.90;;;;;;;-1.60;91.01;102328.05;1633099;86;22781;-86
2020/12/03 00:47:18;;;;;;;85.25;21.42;;;;;;;-1.81;91.86;102318.08;1629455;86;21100;-86
2020/12/03 00:49:44;;;;;;;77.35;20.60;;;;;;;-1.67;92.21;102321.66;1628333;86;21097;-86
2020/12/03 00:52:10;;;;;;;83.37;23.10;;;;;;;-1.84;92.97;102315.22;1603252;86;21014;-86
2020/12/03 00:54:35;;;;;;;86.05;21.73;;;;;;;-1.72;93.03;102327.83;1582280;88;20994;-86
2020/12/03 00:57:02;;;;;;;92.67;23.15;;;;;;;-1.65;92.25;102317.91;1623654;86;21052;-86
2020/12/03 00:59:27;;;;;;;87.02;21.35;;;;;;;-1.64;92.11;102323.53;1627893;85;21200;-86
2020/12/03 01:01:53;;;;;;;86.15;21.45;;;;;;;-1.70;92.04;102314.00;1624132;86;21112;-86
2020/12/03 01:04:19;;;;;;;93.70;23.45;;;;;;;-1.73;92.20;102315.11;1633303;84;21695;-85
2020/12/03 01:06:45;;;;;;;87.90;21.35;;;;;;;-1.63;92.57;102312.47;1763705;80;21005;-86
2020/12/03 01:09:13;;;;;;;86.08;21.70;;;;;;;-1.75;92.52;102322.81;1774001;80;21224;-85
2020/12/03 01:11:39;;;;;;;77.92;21.10;;;;;;;-1.54;91.95;102326.18;1773460;80;21565;-86
2020/12/03 01:14:05;;;;;;;81.75;19.20;;;;;;;-1.59;91.29;102320.46;1774648;80;21245;-86
2020/12/03 01:16:31;;;;;;;78.37;20.43;;;;;;;-1.74;91.97;102317.87;1749046;80;22438;-86
2020/12/03 01:18:57;;;;;;;89.07;21.48;;;;;;;-1.66;92.29;102318.03;1769010;80;20974;-86
2020/12/03 01:21:23;;;;;;;78.42;20.57;;;;;;;-1.58;91.98;102313.39;1773233;80;20919;-86
2020/12/03 01:23:51;;;;;;;73.75;18.65;;;;;;;-1.67;91.82;102317.20;1774234;80;21010;-85
2020/12/03 01:26:19;;;;;;;74.17;18.05;;;;;;;-1.81;91.88;102310.15;1774296;80;21255;-86
2020/12/03 01:32:26;;;;;;;75.17;19.27;;;;;;;-1.56;91.90;102308.78;1709113;82;21161;-85
2020/12/03 01:34:51;;;;;;;79.45;18.87;;;;;;;-1.86;92.58;102310.05;1708055;82;21133;-86
2020/12/03 01:37:17;;;;;;;68.20;18.45;;;;;;;-1.85;92.09;102304.31;1704881;83;21059;-86
2020/12/03 01:39:46;;;;;;;76.00;19.92;;;;;;;-1.77;92.14;102299.16;1710294;82;21767;-85
2020/12/03 01:42:13;;;;;;;70.47;19.87;;;;;;;-1.74;92.28;102290.13;1715804;82;21159;-85
2020/12/03 01:44:47;;;;;;;71.53;19.17;;;;;;;-1.66;92.17;102294.24;1713432;82;21647;-86
2020/12/03 01:47:30;;;;;;;71.57;19.62;;;;;;;-1.61;92.06;102292.03;1713892;82;21267;-86
2020/12/03 01:49:57;;;;;;;73.42;18.92;;;;;;;-1.81;91.98;102286.37;1616763;87;26700;-85
2020/12/03 01:52:23;;;;;;;71.37;19.65;;;;;;;-1.65;92.11;102300.73;1607822;87;21187;-86
2020/12/03 01:54:50;;;;;;;68.30;18.95;;;;;;;-1.75;92.29;102301.19;1603374;87;21002;-86
2020/12/03 01:57:54;;;;;;;74.60;19.82;;;;;;;-1.65;91.97;102306.47;1604469;87;21187;-85
2020/12/03 02:04:00;;;;;;;67.55;20.15;;;;;;;-1.65;91.61;102304.69;1601441;88;21227;-86
2020/12/03 02:06:34;;;;;;;61.30;18.77;;;;;;;-1.61;91.91;102303.44;1611957;88;21641;-85
2020/12/03 02:09:01;;;;;;;69.97;17.80;;;;;;;-1.37;90.50;102307.48;1607465;87;21175;-85
2020/12/03 02:11:26;;;;;;;64.10;17.52;;;;;;;-1.43;90.88;102296.14;1620370;87;21203;-85
2020/12/03 02:13:58;;;;;;;72.12;17.02;;;;;;;-1.65;91.53;102299.41;1608248;87;21216;-86
2020/12/03 02:16:26;;;;;;;69.03;19.65;;;;;;;-1.62;91.31;102299.13;1580214;89;21192;-85
2020/12/03 02:22:33;;;;;;;70.17;18.85;;;;;;;-1.52;91.50;102304.91;1582771;89;21265;-86
2020/12/03 02:24:59;;;;;;;68.75;20.68;;;;;;;-1.44;90.84;102310.31;1585868;87;21707;-85
2020/12/03 02:27:25;;;;;;;69.12;19.65;;;;;;;-1.62;91.57;102312.81;1608688;88;20966;-85
2020/12/03 02:29:52;;;;;;;59.77;18.37;;;;;;;-1.36;91.47;102310.47;1605620;87;21113;-86
2020/12/03 02:32:19;;;;;;;69.40;18.52;;;;;;;-1.28;90.40;102307.14;1610180;88;21280;-86
2020/12/03 02:34:46;;;;;;;63.40;18.65;;;;;;;-1.41;90.67;102309.58;1609750;87;21345;-86
2020/12/03 02:37:13;;;;;;;67.15;19.42;;;;;;;-1.24;90.77;102308.03;1603704;87;22364;-86
2020/12/03 02:39:40;;;;;;;64.35;18.75;;;;;;;-1.49;91.31;102305.46;1606120;88;21305;-85
2020/12/03 02:42:11;;;;;;;65.05;17.45;;;;;;;-1.37;91.67;102307.48;1605686;87;21229;-87
2020/12/03 02:44:46;;;;;;;67.67;18.12;;;;;;;-1.35;91.35;102308.19;1612639;87;21232;-86
2020/12/03 02:50:52;;;;;;;69.75;19.45;;;;;;;-1.36;91.24;102301.21;1694857;83;21199;-85
2020/12/03 02:53:18;;;;;;;66.77;18.65;;;;;;;-1.15;90.96;102299.74;1697949;83;20981;-85
2020/12/03 02:55:44;;;;;;;65.97;18.37;;;;;;;-1.37;91.35;102303.03;1695378;83;21661;-85
2020/12/03 02:58:10;;;;;;;81.97;20.65;;;;;;;-1.13;90.89;102303.09;1690560;84;21191;-85
2020/12/03 03:00:36;;;;;;;73.85;19.02;;;;;;;-1.17;90.79;102310.97;1693538;83;21269;-86
2020/12/03 03:03:02;;;;;;;80.28;19.48;;;;;;;-1.20;90.15;102303.31;1692267;83;21638;-85
2020/12/03 03:05:28;;;;;;;74.10;20.05;;;;;;;-1.20;90.96;102298.86;1691873;83;21672;-86
2020/12/03 03:07:54;;;;;;;66.75;19.12;;;;;;;-1.00;90.46;102297.50;1689172;84;20993;-86
2020/12/03 03:10:23;;;;;;;65.60;20.27;;;;;;;-1.06;90.60;102297.60;1688526;83;21175;-86
2020/12/03 03:12:50;;;;;;;77.12;19.15;;;;;;;-0.96;89.88;102291.80;1714771;80;21174;-86
2020/12/03 03:15:18;;;;;;;70.28;20.35;;;;;;;-1.42;91.39;102295.98;1770364;80;21205;-86
2020/12/03 03:17:44;;;;;;;77.80;19.25;;;;;;;-1.44;92.06;102300.61;1776268;80;21155;-86
2020/12/03 03:20:10;;;;;;;73.90;19.60;;;;;;;-1.35;92.15;102298.94;1774645;80;21157;-86
2020/12/03 03:22:36;;;;;;;68.57;19.60;;;;;;;-1.16;91.13;102308.17;1772826;80;21560;-86
2020/12/03 03:25:03;;;;;;;68.00;19.25;;;;;;;-1.20;91.94;102304.64;1774257;80;21132;-86
2020/12/03 03:27:29;;;;;;;75.65;20.15;;;;;;;-1.16;91.24;102304.20;1773005;80;21703;-86
2020/12/03 03:29:54;;;;;;;81.55;22.15;;;;;;;-1.25;91.44;102301.57;1770787;80;20939;-86
2020/12/03 03:32:20;;;;;;;70.53;20.27;;;;;;;-1.16;91.66;102304.70;1772550;80;20954;-86
2020/12/03 03:34:46;;;;;;;71.33;20.45;;;;;;;-1.19;91.28;102299.19;1773320;80;21929;-85
2020/12/03 03:37:12;;;;;;;66.50;20.43;;;;;;;-1.23;91.33;102297.81;1772170;80;20887;-86
2020/12/03 03:39:38;;;;;;;64.82;19.00;;;;;;;-1.12;91.10;102302.11;1772338;80;21596;-86
2020/12/03 03:42:03;;;;;;;66.17;20.23;;;;;;;-0.99;91.01;102303.98;1772529;80;20954;-86
2020/12/03 03:44:29;;;;;;;66.00;18.52;;;;;;;-1.13;91.36;102303.09;1777827;80;21038;-85
2020/12/03 03:46:55;;;;;;;71.80;19.62;;;;;;;-1.02;91.37;102306.91;1778809;80;21181;-86
2020/12/03 03:49:21;;;;;;;78.72;19.98;;;;;;;-1.06;91.57;102302.89;1779312;80;20919;-86
2020/12/03 03:51:46;;;;;;;73.75;18.05;;;;;;;-1.37;92.96;102300.38;1773246;80;21191;-86
2020/12/03 03:54:13;;;;;;;72.12;19.10;;;;;;;-1.20;92.22;102293.56;1769660;80;20951;-86
2020/12/03 03:56:39;;;;;;;66.90;18.95;;;;;;;-1.13;92.40;102301.77;1772255;79;21144;-85
2020/12/03 03:59:04;;;;;;;69.67;20.15;;;;;;;-0.93;91.56;102299.45;1775987;80;21855;-85
2020/12/03 04:01:30;;;;;;;72.67;20.20;;;;;;;-1.23;92.99;102298.31;1774298;80;21053;-85
2020/12/03 04:03:56;;;;;;;69.12;19.23;;;;;;;-1.22;93.07;102302.61;1775749;80;21132;-86
2020/12/03 04:06:22;;;;;;;74.05;19.98;;;;;;;-1.15;93.14;102301.92;1771400;80;20919;-86
2020/12/03 04:08:48;;;;;;;81.35;20.05;;;;;;;-1.30;93.74;102298.50;1750083;80;21549;-85
2020/12/03 04:11:16;;;;;;;75.15;19.50;;;;;;;-1.12;93.08;102292.02;1775592;80;21260;-85
2020/12/03 04:13:43;;;;;;;77.15;20.17;;;;;;;-0.90;92.61;102296.18;1772424;80;21557;-86
2020/12/03 04:16:11;;;;;;;76.20;20.60;;;;;;;-0.90;92.41;102293.53;1772875;80;21202;-86
2020/12/03 04:18:38;;;;;;;71.00;19.50;;;;;;;-1.16;92.89;102292.80;1771703;80;21061;-86
2020/12/03 04:21:07;;;;;;;70.83;20.80;;;;;;;-1.20;94.16;102297.53;1774362;80;21022;-86
2020/12/03 04:23:33;;;;;;;71.53;19.73;;;;;;;-1.24;94.02;102300.58;1751203;80;21261;-86
2020/12/03 04:25:59;;;;;;;71.92;17.98;;;;;;;-1.41;94.14;102306.94;1768477;80;21141;-86
2020/12/03 04:28:26;;;;;;;74.22;18.92;;;;;;;-1.37;94.05;102301.70;1775849;80;21144;-86
2020/12/03 04:30:51;;;;;;;62.08;19.07;;;;;;;-1.41;94.58;102301.65;1772733;80;21208;-85
2020/12/03 04:33:17;;;;;;;57.30;16.87;;;;;;;-1.34;94.62;102299.27;1772708;80;20954;-85
2020/12/03 04:35:43;;;;;;;60.88;17.32;;;;;;;-1.19;93.78;102308.45;1772806;80;21208;-86
2020/12/03 04:38:11;;;;;;;64.95;17.37;;;;;;;-1.34;93.64;102315.14;1777702;80;21088;-85
2020/12/03 04:40:41;;;;;;;63.20;17.52;;;;;;;-1.05;93.26;102307.69;1767069;80;21219;-86
2020/12/03 04:43:28;;;;;;;71.28;20.37;;;;;;;-1.23;93.68;102301.78;1772134;80;21254;-86
2020/12/03 04:46:22;;;;;;;70.78;18.80;;;;;;;-1.29;94.04;102299.70;1771971;80;21093;-86
2020/12/03 04:49:23;;;;;;;61.88;18.62;;;;;;;-1.29;93.38;102304.98;1775397;80;21223;-85
2020/12/03 04:52:22;;;;;;;73.05;18.85;;;;;;;-1.33;94.57;102302.75;1654102;83;21243;-85
2020/12/03 04:54:59;;;;;;;67.25;19.32;;;;;;;-1.17;93.86;102303.87;1654981;85;21303;-85
2020/12/03 04:57:49;;;;;;;62.80;19.60;;;;;;;-1.19;93.50;102312.91;1654515;85;21181;-85
2020/12/03 05:00:35;;;;;;;62.95;19.25;;;;;;;-1.14;93.60;102314.66;1658962;85;21588;-85
2020/12/03 05:03:43;;;;;;;70.65;20.12;;;;;;;-1.15;93.29;102314.28;1655641;85;21728;-86
2020/12/03 05:06:23;;;;;;;60.05;19.40;;;;;;;-1.13;92.80;102309.70;1651433;86;21239;-85
2020/12/03 05:09:03;;;;;;;60.85;17.90;;;;;;;-1.21;92.80;102310.39;1648076;86;21644;-86
2020/12/03 05:11:40;;;;;;;59.73;17.90;;;;;;;-1.18;92.19;102312.79;1659506;85;21319;-85
2020/12/03 05:14:15;;;;;;;59.48;16.95;;;;;;;-1.05;92.17;102321.75;1652867;85;21191;-86
2020/12/03 05:17:14;;;;;;;53.52;17.12;;;;;;;-1.09;92.26;102315.05;1651191;85;21406;-86
2020/12/03 05:20:05;;;;;;;56.83;16.32;;;;;;;-1.14;92.70;102318.63;1657712;85;21231;-85
2020/12/03 05:22:31;;;;;;;61.25;16.82;;;;;;;-1.01;92.16;102315.68;1603262;87;21331;-85
2020/12/03 05:24:57;;;;;;;55.58;17.20;;;;;;;-1.05;91.61;102313.81;1600438;88;21043;-85
2020/12/03 05:31:24;;;;;;;65.25;17.02;;;;;;;-0.97;91.73;102324.53;1657212;85;21591;-86
2020/12/03 05:33:51;;;;;;;63.52;18.30;;;;;;;-0.94;91.61;102324.25;1658248;85;21748;-85
2020/12/03 05:36:30;;;;;;;57.20;17.35;;;;;;;-0.79;90.76;102328.61;1657584;85;21139;-86
2020/12/03 05:39:00;;;;;;;80.38;20.17;;;;;;;-1.04;91.98;102324.73;1597608;89;21182;-86
2020/12/03 05:41:31;;;;;;;64.95;18.57;;;;;;;-1.07;92.30;102334.27;1595501;89;21187;-86
2020/12/03 05:43:57;;;;;;;68.72;19.50;;;;;;;-0.94;91.75;102328.22;1602219;89;21771;-86
2020/12/03 05:46:25;;;;;;;62.85;19.55;;;;;;;-0.75;91.53;102335.77;1592214;89;20954;-86
2020/12/03 05:49:04;;;;;;;63.80;19.00;;;;;;;-0.79;91.63;102333.08;1576784;89;21179;-86
2020/12/03 05:51:33;;;;;;;66.45;19.82;;;;;;;-0.81;91.85;102330.56;1597782;89;21215;-86
2020/12/03 05:54:04;;;;;;;74.87;19.87;;;;;;;-0.59;90.59;102332.06;1544620;92;21821;-86
2020/12/03 05:56:31;;;;;;;61.63;19.17;;;;;;;-0.78;90.89;102327.63;1546095;92;21291;-86
2020/12/03 05:59:19;;;;;;;64.77;20.68;;;;;;;-0.62;91.02;102338.11;1547968;89;21246;-85
2020/12/03 06:02:08;;;;;;;72.62;20.40;;;;;;;-0.58;91.02;102333.72;1559036;90;21203;-86
2020/12/03 06:04:42;;;;;;;62.55;16.32;;;;;;;-0.56;90.96;102337.07;1566419;90;21204;-85
2020/12/03 06:07:48;;;;;;;70.12;17.00;;;;;;;-0.47;90.19;102334.87;1459526;97;21291;-85
2020/12/03 06:10:25;;;;;;;61.05;13.98;;;;;;;-0.35;90.55;102343.98;1454441;97;21283;-85
2020/12/03 06:13:21;;;;;;;61.95;14.35;;;;;;;-0.33;89.84;102342.00;1445901;98;21349;-85
2020/12/03 06:16:03;;;;;;;68.25;15.63;;;;;;;-0.18;89.62;102334.41;1417110;97;21307;-85
2020/12/03 06:19:08;;;;;;;67.47;14.78;;;;;;;-0.28;90.06;102330.48;1440465;97;21244;-85
2020/12/03 06:21:48;;;;;;;55.33;15.15;;;;;;;-0.14;89.56;102329.19;1439212;98;21269;-85
2020/12/03 06:24:35;;;;;;;66.20;16.10;;;;;;;-0.21;89.54;102324.11;1443909;97;21228;-86
2020/12/03 06:27:23;;;;;;;71.80;15.48;;;;;;;-0.11;89.23;102317.80;1438396;98;22506;-85
2020/12/03 06:30:13;;;;;;;57.75;15.40;;;;;;;-0.28;89.55;102312.77;1445364;97;21428;-85
2020/12/03 06:33:18;;;;;;;67.92;16.52;;;;;;;-0.05;89.34;102323.83;1432063;97;21313;-86
2020/12/03 06:35:55;;;;;;;62.00;15.00;;;;;;;-0.05;89.52;102325.66;1415167;99;21353;-86
2020/12/03 06:38:35;;;;;;;58.05;14.80;;;;;;;-0.18;89.17;102322.00;1416999;99;21267;-86
2020/12/03 06:41:28;;;;;;;57.35;15.88;;;;;;;0.09;88.77;102323.84;1429867;99;21432;-86
2020/12/03 06:44:21;;;;;;;50.52;13.28;;;;;;;0.20;87.91;102328.09;1435118;97;21779;-86
2020/12/03 06:47:09;;;;;;;63.87;16.15;;;;;;;0.18;88.27;102330.08;1454797;97;21219;-86
2020/12/03 06:49:59;;;;;;;49.27;13.70;;;;;;;0.15;88.43;102321.92;1445793;96;21150;-86
2020/12/03 06:53:06;;;;;;;61.80;16.12;;;;;;;0.15;87.67;102332.52;1545137;91;22227;-86
2020/12/03 06:55:49;;;;;;;62.20;15.88;;;;;;;0.12;88.13;102332.82;1621410;87;21568;-86
2020/12/03 06:58:37;;;;;;;64.10;17.37;;;;;;;0.22;88.20;102338.06;1615952;88;21199;-86
2020/12/03 07:01:23;;;;;;;69.22;16.60;;;;;;;0.09;87.70;102338.88;1610100;88;21618;-87
2020/12/03 07:04:38;;;;;;;62.05;16.05;;;;;;;-0.12;89.06;102339.13;1609987;88;21768;-86
2020/12/03 07:07:34;;;;;;;68.02;13.98;;;;;;;0.01;89.04;102342.78;1640511;85;21159;-86
2020/12/03 07:10:20;;;;;;;66.70;15.63;;;;;;;0.27;88.44;102349.06;1664893;85;21326;-85
2020/12/03 07:13:00;;;;;;;56.48;14.33;;;;;;;0.22;88.59;102351.31;1756516;80;21100;-86
2020/12/03 07:16:02;;;;;;;57.93;13.95;;;;;;;0.52;87.76;102338.21;1776321;79;21116;-86
2020/12/03 07:18:42;;;;;;;49.80;12.65;;;;;;;0.73;86.12;102347.70;1771241;80;21109;-85
2020/12/03 07:21:56;;;;;;;54.33;13.60;;;;;;;0.52;85.85;102351.97;1774441;80;22100;-86
2020/12/03 07:24:30;;;;;;;43.78;12.28;;;;;;;0.56;84.57;102346.23;1767780;80;22272;-86
2020/12/03 07:27:31;;;;;;;47.43;12.35;;;;;;;0.19;85.00;102343.66;1772311;80;21120;-86
2020/12/03 07:30:02;;;;;;;52.15;12.28;;;;;;;0.58;85.11;102341.59;1773171;79;21152;-86
2020/12/03 07:33:05;;;;;;;51.00;12.37;;;;;;;0.51;84.57;102343.68;1771564;80;21161;-87
2020/12/03 07:36:01;;;;;;;50.00;12.88;;;;;;;0.99;83.22;102347.27;1713260;81;21287;-86
2020/12/03 07:38:39;;;;;;;57.90;15.23;;;;;;;0.67;83.86;102347.80;1721887;81;20929;-87
2020/12/03 07:41:06;;;;;;;48.30;14.53;;;;;;;0.38;85.20;102358.61;1734654;81;22045;-86
2020/12/03 07:43:46;;;;;;;47.27;13.43;;;;;;;0.38;85.49;102358.14;1722018;81;21267;-87
2020/12/03 07:46:34;;;;;;;45.52;13.22;;;;;;;0.49;84.77;102357.08;1727513;81;21546;-86
2020/12/03 07:49:00;;;;;;;55.88;14.65;;;;;;;0.17;86.02;102358.38;1740846;81;21291;-85
2020/12/03 07:51:27;;;;;;;50.70;13.55;;;;;;;0.17;86.35;102360.19;1710636;81;21217;-85
2020/12/03 07:54:21;;;;;;;44.90;12.68;;;;;;;0.35;85.55;102362.88;1732463;81;21121;-87
2020/12/03 07:56:48;;;;;;;;;;;;;;;0.46;84.62;102356.05;1744276;81;21157;-85
2020/12/03 07:59:29;;;;;;;47.48;14.45;;;;;;;0.30;85.26;102352.73;1737342;81;20298;-85
2020/12/03 08:06:14;;;;;;;45.73;13.62;;;;;;;-0.05;85.84;102353.48;1717469;81;21204;-86
2020/12/03 08:08:48;;;;;;;55.52;14.47;;;;;;;0.29;85.24;102355.52;1711419;81;21260;-86
2020/12/03 08:11:39;;;;;;;49.55;12.25;;;;;;;0.46;84.31;102348.09;1624927;87;21229;-86
2020/12/03 08:14:42;;;;;;;45.35;13.13;;;;;;;0.32;84.85;102347.27;1672270;83;21236;-86
2020/12/03 08:17:28;;;;;;;51.85;12.68;;;;;;;0.55;83.95;102343.21;1664312;83;21263;-87
2020/12/03 08:20:08;;;;;;;49.33;13.18;;;;;;;0.56;83.76;102340.06;1678101;84;21133;-87
2020/12/03 08:22:44;;;;;;;50.00;13.55;;;;;;;0.51;84.08;102339.70;1692949;82;21581;-86
2020/12/03 08:25:26;;;;;;;49.73;13.35;;;;;;;0.58;83.68;102338.93;1667484;85;21230;-87
2020/12/03 08:28:01;;;;;;;50.30;14.18;;;;;;;0.42;83.46;102338.28;1663149;84;21318;-87
2020/12/03 08:30:42;;;;;;;46.05;13.80;;;;;;;0.35;83.82;102342.50;1676963;83;21367;-86
2020/12/03 08:33:15;;;;;;;56.63;14.38;;;;;;;0.48;84.49;102338.67;1687519;84;21216;-87
2020/12/03 08:35:59;;;;;;;52.83;13.10;;;;;;;0.55;83.56;102339.23;1602365;88;21694;-87
2020/12/03 08:38:41;;;;;;;46.70;13.68;;;;;;;0.59;84.28;102337.11;1587087;89;21128;-87
2020/12/03 08:41:11;;;;;;;50.30;13.08;;;;;;;0.47;83.74;102331.69;1586748;88;21108;-87
2020/12/03 08:43:45;;;;;;;58.60;17.25;;;;;;;0.39;83.89;102335.11;1595768;88;22209;-86
2020/12/03 08:46:25;;;;;;;62.75;18.32;;;;;;;0.64;83.91;102340.98;1621995;88;21276;-87
2020/12/03 08:48:50;;;;;;;55.78;14.68;;;;;;;0.82;83.46;102348.11;1615840;88;21549;-86
2020/12/03 08:51:18;;;;;;;56.95;15.00;;;;;;;0.85;82.53;102345.16;1604855;88;21041;-87
2020/12/03 08:53:51;;;;;;;57.08;13.35;;;;;;;0.74;83.17;102341.42;1583203;88;21049;-87
2020/12/03 08:56:22;;;;;;;47.25;14.15;;;;;;;0.66;82.46;102336.37;1600054;88;21501;-88
2020/12/03 08:59:02;;;;;;;54.18;15.03;;;;;;;0.60;83.87;102344.10;1593874;88;21093;-88
2020/12/03 09:01:35;;;;;;;58.40;14.40;;;;;;;0.57;83.50;102332.47;1594248;88;21263;-88
2020/12/03 09:04:04;;;;;;;54.20;15.40;;;;;;;0.68;83.74;102326.45;1601550;88;21317;-88
2020/12/03 09:06:32;;;;;;;46.40;14.45;;;;;;;0.71;83.02;102332.41;1599559;88;21306;-87
2020/12/03 09:09:04;;;;;;;40.80;12.68;;;;;;;0.75;83.01;102326.66;1586588;88;21734;-88
2020/12/03 09:11:33;;;;;;;49.13;13.15;;;;;;;0.84;83.21;102327.08;1569980;89;21291;-88
2020/12/03 09:14:01;;;;;;;47.53;12.65;;;;;;;0.74;82.94;102322.86;1584753;88;21254;-88
2020/12/03 09:16:29;;;;;;;47.55;13.88;;;;;;;0.75;82.67;102320.53;1608223;87;21219;-88
2020/12/03 09:18:55;;;;;;;54.77;14.65;;;;;;;0.61;83.45;102324.04;1614348;88;21120;-87
2020/12/03 09:21:29;;;;;;;54.15;14.65;;;;;;;0.79;83.17;102321.38;1591161;88;21209;-87
2020/12/03 09:23:58;;;;;;;53.20;15.50;;;;;;;0.84;82.50;102321.77;1599045;89;21207;-87
2020/12/03 09:26:34;;;;;;;48.87;15.28;;;;;;;0.83;82.91;102317.45;1552137;90;21212;-88
2020/12/03 09:29:04;;;;;;;57.15;16.20;;;;;;;0.68;83.50;102321.14;1545164;91;21259;-87
2020/12/03 09:31:36;;;;;;;57.33;13.83;;;;;;;0.79;83.32;102318.73;1541692;85;21248;-86
2020/12/03 09:34:04;;;;;;;48.30;13.10;;;;;;;0.84;82.75;102323.59;1648842;85;21839;-86
2020/12/03 09:37:02;;;;;;;48.42;13.18;;;;;;;0.83;82.78;102322.77;1679013;84;21231;-86
2020/12/03 09:39:33;;;;;;;47.00;13.85;;;;;;;0.83;82.78;102318.78;1671832;84;21466;-85
2020/12/03 09:42:02;;;;;;;50.83;13.22;;;;;;;1.03;82.36;102324.77;1643085;86;21324;-85
2020/12/03 09:44:34;;;;;;;45.35;13.22;;;;;;;1.00;82.73;102326.39;1631618;85;21235;-86
2020/12/03 09:47:17;;;;;;;47.78;12.88;;;;;;;0.98;81.92;102316.91;1632672;85;21178;-87
2020/12/03 09:49:44;;;;;;;49.90;14.55;;;;;;;1.03;82.00;102315.47;1669027;85;21132;-86
2020/12/03 09:52:12;;;;;;;53.55;14.85;;;;;;;1.09;81.69;102315.34;1676104;84;21165;-85
2020/12/03 09:54:40;;;;;;;49.15;13.75;;;;;;;1.04;82.07;102314.97;1686736;84;21120;-86
2020/12/03 09:57:12;;;;;;;66.25;17.25;;;;;;;1.12;81.73;102319.84;1693256;83;21235;-86
2020/12/03 09:59:39;;;;;;;53.87;16.50;;;;;;;0.72;82.31;102313.70;1719292;83;21276;-86
2020/12/03 10:02:14;;;;;;;58.92;15.20;;;;;;;0.65;82.46;102309.50;1715663;83;21127;-86
2020/12/03 10:05:03;;;;;;;54.85;13.22;;;;;;;0.84;83.14;102303.19;1715505;83;21719;-86
2020/12/03 10:07:49;;;;;;;50.70;13.32;;;;;;;0.63;83.10;102308.81;1717432;83;21524;-87
2020/12/03 10:10:42;;;;;;;63.85;15.90;;;;;;;0.77;82.88;102308.78;1711321;83;21104;-86
2020/12/03 10:13:27;;;;;;;51.80;14.53;;;;;;;0.73;82.36;102299.94;1629136;87;21646;-86
2020/12/03 10:16:04;;;;;;;43.25;12.20;;;;;;;1.00;82.47;102307.81;1626813;87;21279;-86
2020/12/03 10:18:50;;;;;;;50.67;13.98;;;;;;;1.26;81.43;102309.63;1631597;87;21167;-86
2020/12/03 10:21:23;;;;;;;51.15;14.07;;;;;;;1.11;81.74;102298.25;1581732;89;21335;-86
2020/12/03 10:24:12;;;;;;;52.17;14.13;;;;;;;0.82;81.91;102289.23;1583181;89;21709;-85
2020/12/03 10:26:43;;;;;;;59.25;13.68;;;;;;;0.96;81.33;102298.47;1582937;89;21868;-86
2020/12/03 10:32:52;;;;;;;55.83;15.83;;;;;;;0.86;82.24;102287.95;1578985;90;21685;-86
2020/12/03 10:35:19;;;;;;;57.58;15.58;;;;;;;0.92;81.64;102287.84;1579783;89;21176;-86
2020/12/03 10:37:51;;;;;;;65.08;16.37;;;;;;;0.95;81.87;102288.86;1584376;89;21272;-86
2020/12/03 10:40:20;;;;;;;54.10;15.40;;;;;;;0.84;82.26;102286.44;1538784;91;21373;-86
2020/12/03 10:42:54;;;;;;;55.65;16.00;;;;;;;0.86;82.04;102289.78;1540179;92;21223;-86
2020/12/03 10:45:25;;;;;;;48.23;14.47;;;;;;;0.95;82.21;102294.66;1528044;91;21323;-86
2020/12/03 10:47:57;;;;;;;47.83;12.65;;;;;;;1.06;81.40;102295.25;1520890;92;21236;-86
2020/12/03 10:50:49;;;;;;;48.02;14.40;;;;;;;1.15;80.95;102281.54;1541914;90;21151;-86
2020/12/03 10:53:21;;;;;;;54.70;14.47;;;;;;;1.00;81.67;102274.63;1560007;90;22236;-87
2020/12/03 11:03:13;;;;;;;54.90;16.12;;;;;;;0.57;82.80;102267.48;1545216;90;21812;-88
2020/12/03 11:09:07;;;;;;;62.03;16.23;;;;;;;0.67;83.45;102273.52;1586323;86;21176;-87
2020/12/03 11:11:37;;;;;;;62.13;16.73;;;;;;;0.70;83.51;102271.06;1635450;86;21080;-86
2020/12/03 11:17:50;;;;;;;56.48;13.88;;;;;;;0.86;83.36;102254.78;1674512;81;21346;-87
2020/12/03 11:30:23;;;;;;;63.87;16.75;;;;;;;0.92;83.59;102261.30;1551593;91;21228;-87
2020/12/03 11:36:38;;;;;;;79.32;18.62;;;;;;;0.61;85.29;102251.59;1465200;94;21653;-87
2020/12/03 11:39:07;;;;;;;73.90;17.55;;;;;;;0.81;83.72;102256.23;1435104;98;21483;-87
2020/12/03 11:53:27;;;;;;;;;;;;;;;0.38;85.32;102256.52;1386192;103;21402;-88
2020/12/03 11:55:54;;;;;;;80.12;19.37;;;;;;;0.46;84.97;102249.97;1383902;103;20323;-87
2020/12/03 11:58:29;;;;;;;64.50;17.42;;;;;;;0.74;83.98;102263.16;1394197;100;21361;-86
2020/12/03 12:01:12;;;;;;;59.08;16.30;;;;;;;0.61;84.05;102258.22;1404196;101;21792;-87
2020/12/03 12:03:41;;;;;;;71.17;17.37;;;;;;;0.42;84.32;102253.42;1391643;101;21786;-87
2020/12/03 12:08:41;;;;;;;67.78;20.40;;;;;;;0.74;83.64;102255.20;1374629;104;21302;-87
2020/12/03 12:11:22;;;;;;;63.00;16.75;;;;;;;1.01;82.54;102268.83;1387646;100;21674;-87
2020/12/03 12:13:44;;;;;;;63.17;15.68;;;;;;;0.99;82.12;102261.50;1421228;100;21268;-87
2020/12/03 12:16:11;;;;;;;73.47;16.48;;;;;;;0.84;82.65;102261.23;1419683;99;21039;-87
2020/12/03 12:18:38;;;;;;;64.55;17.95;;;;;;;0.54;83.93;102251.38;1421774;100;21290;-87
2020/12/03 12:21:06;;;;;;;54.53;14.20;;;;;;;0.66;84.10;102255.95;1423170;100;21180;-87
2020/12/03 12:23:31;;;;;;;44.67;13.78;;;;;;;0.57;83.40;102259.52;1480864;95;21234;-87
2020/12/03 12:25:57;;;;;;;62.25;16.12;;;;;;;0.82;82.65;102251.25;1496456;95;20982;-87
2020/12/03 12:35:44;;;;;;;52.80;15.18;;;;;;;0.65;83.46;102252.97;1497272;94;21570;-87
2020/12/03 12:38:10;;;;;;;55.00;14.83;;;;;;;0.62;84.28;102254.60;1548075;90;21104;-87
2020/12/03 12:40:36;;;;;;;57.43;15.45;;;;;;;0.60;84.37;102244.63;1568523;90;21166;-87
2020/12/03 12:43:02;;;;;;;51.75;14.78;;;;;;;0.59;84.38;102240.29;1567888;90;21107;-88
2020/12/03 12:45:28;;;;;;;53.02;16.23;;;;;;;0.65;83.58;102251.14;1559950;89;21269;-87
2020/12/03 12:47:54;;;;;;;52.55;14.60;;;;;;;0.53;84.51;102254.16;1688965;82;20943;-87
2020/12/03 12:50:21;;;;;;;49.73;15.35;;;;;;;0.56;84.77;102245.91;1731194;82;21137;-87
2020/12/03 12:52:46;;;;;;;53.95;16.05;;;;;;;0.58;84.73;102243.94;1720603;82;21086;-87
2020/12/03 12:55:13;;;;;;;53.52;15.20;;;;;;;0.66;83.64;102250.14;1727197;82;20995;-88
2020/12/03 12:57:39;;;;;;;52.73;14.47;;;;;;;0.70;83.78;102252.49;1733281;81;21282;-88
2020/12/03 13:00:06;;;;;;;48.30;14.15;;;;;;;0.60;83.88;102248.61;1740596;82;21058;-88
2020/12/03 13:02:32;;;;;;;49.88;13.15;;;;;;;0.68;83.13;102244.70;1711140;82;21636;-87